Time;durP1;ratioP1;P1;durP2;ratioP2;P2;SDS_P1;SDS_P2;PMS_P1;PMS_P2;Temp;Humidity;BMP_temperature;BMP_pressure;BME280_temperature;BME280_humidity;BME280_pressure;Samples;Min_cycle;Max_cycle;Signal;HPM_P1;HPM_P2
2022/09/27 00:01:28;;;;;;;;;2.00;1.00;;;;;12.98;68.19;99657.19;4859615;29;45458;-81
2022/09/27 00:03:54;;;;;;;;;1.75;0.25;;;;;12.94;68.95;99645.31;4859446;29;45627;-79
2022/09/27 00:06:26;;;;;;;;;1.00;1.00;;;;;12.96;68.43;99653.03;4859575;29;45576;-81
2022/09/27 00:08:52;;;;;;;;;0.00;0.00;;;;;12.93;68.62;99667.31;4859002;29;45553;-81
2022/09/27 00:11:34;;;;;;;;;1.25;1.00;;;;;12.93;68.57;99661.22;4859310;29;45946;-81
2022/09/27 00:14:00;;;;;;;;;1.50;1.00;;;;;12.91;68.77;99666.63;4862599;29;45713;-82
2022/09/27 00:16:28;;;;;;;;;3.00;1.25;;;;;12.90;68.60;99654.44;4862739;29;45675;-81
2022/09/27 00:19:01;;;;;;;;;1.50;1.50;;;;;12.88;69.09;99658.22;4845437;29;47534;-81
2022/09/27 00:21:29;;;;;;;;;1.25;1.25;;;;;12.86;68.96;99647.81;4862416;29;45940;-81
2022/09/27 00:23:55;;;;;;;;;1.75;1.50;;;;;12.86;69.15;99655.72;4862529;29;45638;-80
2022/09/27 00:26:21;;;;;;;;;1.25;1.00;;;;;12.83;69.24;99647.31;4862520;29;45494;-80
2022/09/27 00:28:46;;;;;;;;;2.00;2.00;;;;;12.83;69.01;99656.03;4862254;29;45588;-80
2022/09/27 00:31:24;;;;;;;;;2.25;2.00;;;;;12.91;69.41;99663.16;4862405;29;46453;-82
2022/09/27 00:33:52;;;;;;;;;3.25;1.50;;;;;12.89;69.57;99671.22;4862568;29;45636;-82
2022/09/27 00:39:39;;;;;;;;;2.25;2.00;;;;;12.87;70.02;99682.84;4862125;29;46034;-82
2022/09/27 00:42:09;;;;;;;;;2.50;1.00;;;;;12.85;70.68;99679.50;4862099;29;45927;-80
2022/09/27 00:44:38;;;;;;;;;1.00;1.00;;;;;12.82;70.34;99679.81;4860522;29;45719;-80
2022/09/27 00:47:39;;;;;;;;;4.75;2.00;;;;;12.77;70.30;99672.38;4862224;29;45683;-81
2022/09/27 00:50:17;;;;;;;;;1.50;0.50;;;;;12.71;70.28;99675.56;4863144;29;46331;-80
2022/09/27 00:53:08;;;;;;;;;1.25;1.00;;;;;12.73;70.87;99686.78;4867287;29;46052;-82
2022/09/27 00:55:43;;;;;;;;;0.00;0.00;;;;;12.70;71.12;99683.59;4850160;29;45733;-81
2022/09/27 00:58:13;;;;;;;;;2.00;1.75;;;;;12.71;70.47;99685.25;4864303;29;45612;-81
2022/09/27 01:00:44;;;;;;;;;1.00;1.00;;;;;12.71;70.77;99699.22;4862710;29;46463;-82
2022/09/27 01:03:14;;;;;;;;;1.00;1.00;;;;;12.73;70.72;99693.84;4862161;29;46166;-82
2022/09/27 01:05:41;;;;;;;;;2.00;1.00;;;;;12.73;70.60;99701.72;4861992;29;45693;-79
2022/09/27 01:08:08;;;;;;;;;2.00;1.00;;;;;12.71;70.50;99691.34;4861804;29;45576;-81
2022/09/27 01:10:45;;;;;;;;;2.00;2.00;;;;;12.74;70.94;99691.03;4861724;29;46377;-80
2022/09/27 01:13:28;;;;;;;;;1.75;0.75;;;;;12.72;71.18;99711.41;4861938;29;46348;-80
2022/09/27 01:16:25;;;;;;;;;3.00;2.75;;;;;12.69;71.08;99698.53;4861809;29;45491;-80
2022/09/27 01:22:41;;;;;;;;;1.00;1.00;;;;;12.68;71.15;99711.84;4861181;29;46101;-80
2022/09/27 01:25:33;;;;;;;;;1.00;0.75;;;;;12.64;71.29;99695.53;4860785;29;46620;-78
2022/09/27 01:28:18;;;;;;;;;1.00;1.00;;;;;12.65;71.72;99714.75;4858589;29;45960;-83
2022/09/27 01:30:46;;;;;;;;;1.75;1.00;;;;;12.62;71.01;99705.38;4861442;29;45604;-82
2022/09/27 01:33:32;;;;;;;;;1.00;1.00;;;;;12.62;71.02;99708.00;4861368;29;46513;-82
2022/09/27 01:39:32;;;;;;;;;2.00;1.00;;;;;12.60;70.85;99715.19;4861207;29;45578;-79
2022/09/27 01:42:04;;;;;;;;;0.75;0.75;;;;;12.58;71.20;99719.75;4861562;29;45529;-80
2022/09/27 01:44:37;;;;;;;;;2.00;1.25;;;;;12.57;71.10;99712.84;4861392;29;46694;-80
2022/09/27 01:47:10;;;;;;;;;1.00;1.00;;;;;12.56;71.21;99704.16;4861148;29;46220;-79
2022/09/27 01:49:53;;;;;;;;;2.75;1.00;;;;;12.57;70.63;99705.81;4861214;29;45775;-80
2022/09/27 01:52:26;;;;;;;;;1.00;1.00;;;;;12.58;71.08;99707.44;4861408;29;45621;-80
2022/09/27 01:54:57;;;;;;;;;2.00;1.00;;;;;12.53;71.06;99720.19;4861232;29;46848;-80
2022/09/27 01:57:29;;;;;;;;;0.00;0.00;;;;;12.54;71.16;99707.88;4861009;29;46047;-82
2022/09/27 02:00:03;;;;;;;;;0.00;0.00;;;;;12.49;70.71;99705.69;4861083;29;45624;-81
2022/09/27 02:02:35;;;;;;;;;0.25;0.25;;;;;12.50;70.72;99715.22;4861232;29;45551;-80
2022/09/27 02:05:06;;;;;;;;;1.00;1.00;;;;;12.49;70.94;99716.19;4860843;29;46361;-80
2022/09/27 02:07:40;;;;;;;;;2.50;1.00;;;;;12.47;70.77;99718.13;4860589;29;47426;-79
2022/09/27 02:10:15;;;;;;;;;2.50;2.00;;;;;12.44;71.00;99715.78;4860658;29;45868;-81
2022/09/27 02:12:50;;;;;;;;;1.50;1.00;;;;;12.50;70.57;99720.47;4861276;29;45616;-77
2022/09/27 02:15:17;;;;;;;;;1.50;0.25;;;;;12.49;70.78;99704.84;4860943;29;46538;-77
2022/09/27 02:18:12;;;;;;;;;1.00;0.00;;;;;12.46;70.89;99718.28;4844011;29;45998;-79
2022/09/27 02:20:43;;;;;;;;;0.25;0.25;;;;;12.42;70.73;99701.97;4843928;29;45614;-80
2022/09/27 02:23:45;;;;;;;;;1.75;1.00;;;;;12.45;70.77;99696.44;4861156;29;45656;-80
2022/09/27 02:26:21;;;;;;;;;2.75;1.00;;;;;12.46;70.50;99702.53;4843687;29;47558;-80
2022/09/27 02:29:19;;;;;;;;;1.00;1.00;;;;;12.44;70.38;99686.88;4860529;29;45895;-80
2022/09/27 02:31:45;;;;;;;;;2.00;1.75;;;;;12.45;70.52;99691.19;4860476;29;45548;-80
2022/09/27 02:34:33;;;;;;;;;1.75;1.00;;;;;12.41;70.46;99683.72;4860867;29;45729;-80
2022/09/27 02:36:59;;;;;;;;;1.50;0.00;;;;;12.40;70.53;99703.91;4860544;29;45662;-80
2022/09/27 02:39:25;;;;;;;;;0.25;0.00;;;;;12.37;70.79;99704.19;4860509;29;45810;-79
2022/09/27 02:41:50;;;;;;;;;0.25;0.25;;;;;12.38;70.87;99702.38;4843242;29;45878;-80
2022/09/27 02:44:17;;;;;;;;;1.00;0.50;;;;;12.36;70.82;99704.34;4860119;29;45612;-81
2022/09/27 02:47:11;;;;;;;;;2.00;0.00;;;;;12.35;70.87;99706.16;4860067;29;45597;-80
2022/09/27 02:49:51;;;;;;;;;1.75;1.00;;;;;12.34;70.77;99698.41;4860314;29;46074;-80
2022/09/27 02:52:35;;;;;;;;;1.25;1.00;;;;;12.34;71.08;99709.75;4860421;29;45767;-80
2022/09/27 02:55:10;;;;;;;;;1.00;0.25;;;;;12.33;71.08;99692.31;4860684;29;45548;-79
2022/09/27 02:58:03;;;;;;;;;0.50;0.00;;;;;12.36;71.06;99699.09;4860238;29;45745;-80
2022/09/27 03:00:40;;;;;;;;;1.00;0.00;;;;;12.33;71.04;99702.81;4861534;29;46110;-79
2022/09/27 03:03:16;;;;;;;;;1.25;0.00;;;;;12.34;71.34;99703.66;4863682;29;45550;-82
2022/09/27 03:09:04;;;;;;;;;0.75;0.00;;;;;12.32;71.41;99706.41;4860996;29;45707;-81
2022/09/27 03:11:29;;;;;;;;;1.00;0.00;;;;;12.30;71.42;99697.03;4862140;29;45892;-81
2022/09/27 03:13:54;;;;;;;;;1.00;1.00;;;;;12.32;71.72;99693.28;4861093;29;45621;-80
2022/09/27 03:16:20;;;;;;;;;0.00;0.00;;;;;12.33;71.76;99702.00;4860619;29;45550;-80
2022/09/27 03:18:45;;;;;;;;;1.00;0.50;;;;;12.32;71.52;99701.16;4860044;29;45476;-79
2022/09/27 03:24:33;;;;;;;;;0.25;0.25;;;;;12.29;71.85;99690.13;4860073;29;45621;-79
2022/09/27 03:26:58;;;;;;;;;0.00;0.00;;;;;12.30;72.15;99682.09;4843268;29;45860;-80
2022/09/27 03:29:24;;;;;;;;;0.75;0.00;;;;;12.32;71.98;99695.91;4860768;29;46357;-80
2022/09/27 03:31:49;;;;;;;;;1.00;0.75;;;;;12.33;72.06;99694.13;4861137;29;45887;-79
2022/09/27 03:34:15;;;;;;;;;0.00;0.00;;;;;12.33;71.72;99694.13;4861482;29;45604;-80
2022/09/27 03:40:02;;;;;;;;;1.25;1.00;;;;;12.41;72.01;99699.50;4862201;29;45945;-78
2022/09/27 03:42:28;;;;;;;;;1.00;1.00;;;;;12.41;71.59;99702.94;4859929;29;45734;-80
2022/09/27 03:44:54;;;;;;;;;1.00;0.25;;;;;12.44;71.67;99694.78;4860099;29;45690;-78
2022/09/27 03:47:19;;;;;;;;;1.00;1.00;;;;;12.46;71.84;99703.34;4861712;29;45435;-80
2022/09/27 03:49:44;;;;;;;;;1.50;1.00;;;;;12.43;71.71;99697.53;4866007;29;45695;-80
2022/09/27 03:55:32;;;;;;;;;2.00;1.00;;;;;12.44;71.86;99692.16;4868904;29;45702;-80
2022/09/27 03:57:57;;;;;;;;;0.00;0.00;;;;;12.48;71.66;99690.06;4869177;29;45529;-81
2022/09/27 04:00:23;;;;;;;;;0.25;0.25;;;;;12.50;71.62;99693.38;4869838;29;47593;-82
2022/09/27 04:02:49;;;;;;;;;0.75;0.75;;;;;12.48;71.59;99688.25;4869819;29;45667;-81
2022/09/27 04:05:15;;;;;;;;;1.25;1.00;;;;;12.49;71.53;99686.47;4868612;29;45690;-80
2022/09/27 04:11:16;;;;;;;;;0.00;0.00;;;;;12.46;71.53;99686.75;4860619;29;45704;-80
2022/09/27 04:13:43;;;;;;;;;0.50;0.50;;;;;12.43;71.67;99682.59;4868580;29;46641;-81
2022/09/27 04:16:08;;;;;;;;;1.00;0.00;;;;;12.43;71.53;99690.47;4869305;29;45740;-80
2022/09/27 04:18:34;;;;;;;;;1.00;0.25;;;;;12.42;71.74;99686.19;4869782;29;45493;-80
2022/09/27 04:20:59;;;;;;;;;0.50;0.50;;;;;12.44;71.90;99678.19;4867235;29;45786;-81
2022/09/27 04:23:25;;;;;;;;;2.75;1.00;;;;;12.43;71.54;99671.25;4862681;29;45688;-79
2022/09/27 04:25:50;;;;;;;;;0.00;0.00;;;;;12.43;71.46;99677.34;4867945;29;45631;-80
2022/09/27 04:28:16;;;;;;;;;1.25;0.50;;;;;12.44;71.26;99665.88;4868239;29;45640;-80
2022/09/27 04:30:41;;;;;;;;;1.00;0.50;;;;;12.42;71.34;99673.06;4862888;29;46136;-78
2022/09/27 04:33:06;;;;;;;;;0.75;0.00;;;;;12.41;71.28;99666.19;4862854;29;46156;-80
2022/09/27 04:41:38;;;;;;;;;0.00;0.00;;;;;12.45;71.45;99672.78;4862198;29;45954;-81
2022/09/27 04:44:05;;;;;;;;;1.00;1.00;;;;;12.47;71.11;99676.09;4862558;29;46130;-81
2022/09/27 04:46:30;;;;;;;;;1.00;0.25;;;;;12.43;71.34;99669.47;4862398;29;45709;-80
2022/09/27 04:48:59;;;;;;;;;0.75;0.50;;;;;12.42;71.44;99673.06;4862631;29;45827;-81
2022/09/27 04:51:24;;;;;;;;;1.00;0.50;;;;;12.44;71.48;99668.50;4862455;29;45574;-81
2022/09/27 04:53:49;;;;;;;;;0.75;0.00;;;;;12.42;71.52;99666.97;4860781;29;46982;-79
2022/09/27 04:56:15;;;;;;;;;0.50;0.00;;;;;12.50;71.52;99662.69;4862087;29;45515;-82
2022/09/27 04:58:40;;;;;;;;;4.00;1.00;;;;;12.48;71.46;99669.88;4861133;29;45531;-81
2022/09/27 05:01:07;;;;;;;;;0.75;0.00;;;;;12.48;71.47;99677.75;4861956;29;45974;-81
2022/09/27 05:03:32;;;;;;;;;1.00;0.50;;;;;12.48;71.53;99677.75;4862087;29;45958;-80
2022/09/27 05:05:59;;;;;;;;;1.00;1.00;;;;;12.44;71.59;99668.50;4862132;29;45724;-82
2022/09/27 05:11:46;;;;;;;;;1.50;1.00;;;;;12.52;71.71;99671.22;4858694;29;45854;-80
2022/09/27 05:14:12;;;;;;;;;0.00;0.00;;;;;12.54;71.69;99676.34;4866389;29;45962;-81
2022/09/27 05:16:38;;;;;;;;;1.00;1.00;;;;;12.50;71.93;99675.81;4850951;29;45395;-80
2022/09/27 05:19:03;;;;;;;;;0.75;0.75;;;;;12.54;71.59;99668.47;4864104;29;45581;-81
2022/09/27 05:21:30;;;;;;;;;1.75;1.00;;;;;12.54;71.58;99697.34;4862048;29;45702;-82
2022/09/27 05:23:56;;;;;;;;;4.50;2.00;;;;;12.59;72.21;99693.34;4844704;29;46301;-81
2022/09/27 05:26:21;;;;;;;;;1.00;1.00;;;;;12.56;72.80;99698.06;4861816;29;45636;-82
2022/09/27 05:28:47;;;;;;;;;0.75;0.00;;;;;12.51;72.93;99681.91;4861854;29;45534;-82
2022/09/27 05:31:13;;;;;;;;;1.00;1.00;;;;;12.50;72.91;99681.06;4861351;29;46504;-82
2022/09/27 05:33:39;;;;;;;;;0.00;0.00;;;;;12.46;73.63;99678.88;4861766;29;46495;-81
2022/09/27 05:36:05;;;;;;;;;0.25;0.00;;;;;12.44;73.57;99675.56;4844598;29;45811;-80
2022/09/27 05:41:55;;;;;;;;;0.75;0.75;;;;;12.32;73.38;99690.66;4862263;29;46090;-80
2022/09/27 05:44:20;;;;;;;;;1.00;1.00;;;;;12.31;73.60;99696.06;4861361;29;46030;-82
2022/09/27 05:46:46;;;;;;;;;1.25;1.00;;;;;12.32;73.69;99692.44;4861093;29;45514;-82
2022/09/27 05:49:12;;;;;;;;;1.00;1.00;;;;;12.29;73.59;99693.59;4861693;29;46015;-82
2022/09/27 05:51:37;;;;;;;;;2.00;0.00;;;;;12.31;72.96;99689.00;4861276;29;46639;-82
2022/09/27 05:54:02;;;;;;;;;1.00;1.00;;;;;12.33;73.30;99680.97;4861507;29;45782;-82
2022/09/27 05:56:28;;;;;;;;;1.00;0.75;;;;;12.32;73.44;99689.81;4861353;29;45572;-82
2022/09/27 05:58:53;;;;;;;;;1.75;1.00;;;;;12.35;73.27;99674.63;4861238;29;45758;-82
2022/09/27 06:01:19;;;;;;;;;2.00;1.00;;;;;12.35;73.23;99674.63;4861099;29;45597;-82
2022/09/27 06:03:46;;;;;;;;;2.00;1.00;;;;;12.35;73.46;99690.38;4860463;29;45700;-83
2022/09/27 06:06:12;;;;;;;;;0.00;0.00;;;;;12.38;73.41;99666.44;4860935;29;45804;-81
2022/09/27 06:11:59;;;;;;;;;1.50;1.00;;;;;12.40;73.08;99669.78;4858306;29;45938;-81
2022/09/27 06:14:25;;;;;;;;;1.00;0.00;;;;;12.43;73.18;99679.16;4860993;29;45635;-82
2022/09/27 06:16:53;;;;;;;;;2.50;1.00;;;;;12.42;73.05;99680.94;4860493;29;45669;-82
2022/09/27 06:19:18;;;;;;;;;1.25;1.00;;;;;12.42;72.87;99675.69;4860823;29;45688;-82
2022/09/27 06:21:43;;;;;;;;;0.00;0.00;;;;;12.41;73.12;99700.31;4861115;29;45489;-83
2022/09/27 06:27:31;;;;;;;;;2.00;1.00;;;;;12.40;73.35;99675.03;4860543;29;45725;-83
2022/09/27 06:29:57;;;;;;;;;2.50;1.00;;;;;12.44;72.85;99691.31;4860753;29;45684;-82
2022/09/27 06:32:22;;;;;;;;;4.25;3.75;;;;;12.41;73.11;99670.59;4860590;29;46904;-82
2022/09/27 06:34:47;;;;;;;;;2.25;2.00;;;;;12.46;73.32;99674.44;4843858;29;45685;-79
2022/09/27 06:37:14;;;;;;;;;1.00;1.00;;;;;12.46;73.26;99673.63;4860545;29;45548;-80
2022/09/27 06:39:39;;;;;;;;;2.50;2.00;;;;;12.50;73.07;99680.25;4860762;29;45600;-79
2022/09/27 06:42:05;;;;;;;;;2.25;2.25;;;;;12.53;73.19;99680.75;4860917;29;45645;-80
2022/09/27 06:44:30;;;;;;;;;1.00;1.00;;;;;12.53;72.81;99674.69;4860767;29;46020;-80
2022/09/27 06:46:56;;;;;;;;;2.00;1.25;;;;;12.58;72.83;99665.38;4860571;29;45554;-81
2022/09/27 06:49:21;;;;;;;;;1.00;0.00;;;;;12.58;72.87;99662.75;4860910;29;45596;-80
2022/09/27 06:51:47;;;;;;;;;2.50;1.00;;;;;12.63;72.81;99677.28;4860326;29;46246;-80
2022/09/27 07:00:27;;;;;;;;;2.00;2.00;;;;;12.63;72.79;99672.88;4860573;29;45704;-79
2022/09/27 07:02:57;;;;;;;;;1.00;0.00;;;;;12.65;72.54;99688.47;4860565;29;46312;-79
2022/09/27 07:05:24;;;;;;;;;2.75;1.00;;;;;12.68;72.84;99682.94;4860431;29;45966;-79
2022/09/27 07:07:52;;;;;;;;;1.50;1.00;;;;;12.68;72.72;99681.16;4860343;29;45771;-79
2022/09/27 07:10:18;;;;;;;;;1.00;1.00;;;;;12.72;72.26;99700.06;4860385;29;45522;-80
2022/09/27 07:12:47;;;;;;;;;1.50;1.00;;;;;12.73;72.14;99699.94;4859773;29;46597;-79
2022/09/27 07:15:14;;;;;;;;;0.25;0.00;;;;;12.78;72.29;99684.56;4860381;29;45988;-80
2022/09/27 07:17:39;;;;;;;;;1.00;1.00;;;;;12.78;72.02;99697.69;4860337;29;45689;-79
2022/09/27 07:20:05;;;;;;;;;1.50;0.25;;;;;12.84;72.00;99719.94;4862222;29;45731;-78
2022/09/27 07:22:30;;;;;;;;;1.00;1.00;;;;;12.82;72.25;99704.31;4865057;29;45736;-79
2022/09/27 07:24:55;;;;;;;;;3.50;1.00;;;;;12.86;71.95;99708.28;4867473;29;45569;-77
2022/09/27 07:27:21;;;;;;;;;3.25;1.00;;;;;12.88;72.11;99698.47;4867328;29;45508;-78
2022/09/27 07:29:47;;;;;;;;;0.00;0.00;;;;;12.93;72.06;99706.75;4867330;29;45787;-78
2022/09/27 07:32:12;;;;;;;;;3.00;1.00;;;;;12.97;71.82;99704.63;4864461;29;45647;-81
2022/09/27 07:34:38;;;;;;;;;0.50;0.50;;;;;13.01;71.46;99722.59;4864236;29;46175;-80
2022/09/27 07:37:04;;;;;;;;;1.75;0.75;;;;;13.03;71.49;99722.47;4846088;29;45585;-80
2022/09/27 07:42:56;;;;;;;;;2.50;1.25;;;;;13.06;71.79;99727.44;4859957;29;45648;-79
2022/09/27 07:45:22;;;;;;;;;2.25;1.00;;;;;13.08;71.32;99725.47;4858515;29;46283;-79
2022/09/27 07:47:47;;;;;;;;;2.00;1.50;;;;;13.09;71.17;99734.19;4860050;29;45620;-81
2022/09/27 07:50:13;;;;;;;;;2.00;1.00;;;;;13.12;71.70;99726.06;4860106;29;45678;-80
2022/09/27 07:52:43;;;;;;;;;0.50;0.00;;;;;13.15;71.23;99733.66;4859982;29;45576;-80
2022/09/27 07:55:10;;;;;;;;;1.00;1.00;;;;;13.18;71.38;99747.31;4860147;29;46008;-79
2022/09/27 07:57:36;;;;;;;;;1.00;1.00;;;;;13.21;70.95;99740.97;4859619;29;45770;-80
2022/09/27 08:00:08;;;;;;;;;1.25;1.00;;;;;13.26;71.07;99743.97;4860216;29;45527;-79
2022/09/27 08:02:33;;;;;;;;;2.50;2.00;;;;;13.31;71.10;99760.97;4859863;29;46480;-77
2022/09/27 08:04:59;;;;;;;;;0.50;0.00;;;;;13.34;70.83;99744.03;4859888;29;45614;-79
2022/09/27 08:07:25;;;;;;;;;1.00;1.00;;;;;13.40;70.86;99760.06;4842782;29;45537;-78
2022/09/27 08:13:18;;;;;;;;;1.00;1.00;;;;;13.43;70.67;99759.78;4848960;29;45660;-78
2022/09/27 08:15:45;;;;;;;;;1.00;1.00;;;;;13.44;70.53;99764.06;4859626;29;46112;-80
2022/09/27 08:18:10;;;;;;;;;3.50;1.00;;;;;13.47;70.57;99772.66;4842691;29;46117;-80
2022/09/27 08:20:36;;;;;;;;;0.75;0.25;;;;;13.48;70.36;99766.41;4860035;29;45700;-79
2022/09/27 08:23:03;;;;;;;;;0.75;0.75;;;;;13.48;70.38;99755.88;4859723;29;46264;-79
2022/09/27 08:25:29;;;;;;;;;1.50;1.00;;;;;13.48;69.76;99764.59;4859735;29;45666;-79
2022/09/27 08:27:59;;;;;;;;;1.00;0.50;;;;;13.45;69.72;99755.19;4859741;29;45681;-81
2022/09/27 08:30:26;;;;;;;;;0.75;0.00;;;;;13.54;70.04;99757.94;4859951;29;45577;-80
2022/09/27 08:33:00;;;;;;;;;0.00;0.00;;;;;13.58;69.88;99761.91;4860050;29;45654;-79
2022/09/27 08:35:28;;;;;;;;;1.25;1.00;;;;;13.65;69.42;99773.50;4862753;29;45625;-79
2022/09/27 08:44:26;;;;;;;;;1.75;1.00;;;;;13.81;69.40;99776.31;4862127;29;46054;-81
2022/09/27 08:47:07;;;;;;;;;1.00;1.00;;;;;13.87;69.20;99788.88;4862512;29;46008;-79
2022/09/27 08:49:46;;;;;;;;;1.00;0.50;;;;;13.92;68.82;99798.94;4862586;29;45610;-80
2022/09/27 08:52:21;;;;;;;;;2.00;1.00;;;;;13.95;68.65;99796.81;4862688;29;45539;-80
2022/09/27 08:54:48;;;;;;;;;1.00;0.50;;;;;13.92;67.95;99794.50;4862009;29;46275;-79
2022/09/27 08:57:13;;;;;;;;;1.00;1.00;;;;;13.98;68.25;99793.88;4862317;29;46231;-80
2022/09/27 08:59:53;;;;;;;;;2.00;0.50;;;;;14.00;68.36;99778.78;4862417;29;45566;-82
2022/09/27 09:02:23;;;;;;;;;0.50;0.00;;;;;13.99;68.49;99771.84;4862417;29;45712;-79
2022/09/27 09:04:56;;;;;;;;;1.00;1.00;;;;;13.99;68.37;99771.00;4862106;29;46444;-79
2022/09/27 09:07:24;;;;;;;;;0.00;0.00;;;;;14.05;68.53;99780.94;4862164;29;46585;-79
2022/09/27 09:09:55;;;;;;;;;0.00;0.00;;;;;14.06;67.34;99775.53;4861961;29;45631;-79
2022/09/27 09:12:48;;;;;;;;;1.00;1.00;;;;;14.10;67.83;99787.41;4862157;29;45845;-79
2022/09/27 09:15:23;;;;;;;;;0.00;0.00;;;;;14.11;67.79;99782.97;4862438;29;45530;-79
2022/09/27 09:18:00;;;;;;;;;1.50;1.00;;;;;14.10;67.37;99799.75;4844494;29;47852;-79
2022/09/27 09:21:08;;;;;;;;;1.00;1.00;;;;;14.08;67.78;99784.13;4865077;29;45461;-79
2022/09/27 09:27:04;;;;;;;;;1.00;1.00;;;;;14.10;67.09;99781.31;4787699;29;46196;-79
2022/09/27 09:30:01;;;;;;;;;1.75;1.00;;;;;14.11;67.00;99775.06;4789876;29;45666;-79
2022/09/27 09:32:44;;;;;;;;;0.00;0.00;;;;;14.11;66.86;99772.44;4798816;29;45637;-80
2022/09/27 09:35:15;;;;;;;;;1.00;0.00;;;;;14.07;66.53;99771.09;4800933;29;45641;-80
2022/09/27 09:37:47;;;;;;;;;1.00;1.00;;;;;14.12;66.84;99774.94;4793064;29;45669;-81
2022/09/27 09:43:49;;;;;;;;;1.00;1.00;;;;;14.11;66.68;99762.72;4786577;29;45602;-80
2022/09/27 09:46:25;;;;;;;;;1.00;1.00;;;;;14.12;66.94;99753.03;4786201;29;45985;-80
2022/09/27 09:49:06;;;;;;;;;1.50;1.00;;;;;14.16;66.85;99755.19;4770992;29;47699;-80
2022/09/27 09:51:39;;;;;;;;;1.00;0.00;;;;;14.20;66.74;99747.81;4787583;29;46059;-78
2022/09/27 09:54:15;;;;;;;;;3.00;1.25;;;;;14.26;66.12;99745.38;4789031;29;45527;-79
2022/09/27 09:56:50;;;;;;;;;1.25;0.00;;;;;14.36;65.84;99747.13;4801246;29;45730;-80
2022/09/27 09:59:42;;;;;;;;;0.75;0.75;;;;;14.42;66.02;99746.50;4861772;29;46247;-81
2022/09/27 10:02:32;;;;;;;;;0.25;0.25;;;;;14.47;65.38;99736.31;4867685;29;46041;-80
2022/09/27 10:04:59;;;;;;;;;1.00;1.00;;;;;14.55;65.42;99725.84;4866885;29;45745;-80
2022/09/27 10:07:50;;;;;;;;;;;;;;;;;;;;;
2022/09/27 10:10:19;;;;;;;;;1.00;0.50;;;;;14.75;64.16;99724.63;4865519;29;75065;-79
2022/09/27 10:12:45;;;;;;;;;0.50;0.00;;;;;14.80;63.91;99719.72;4864471;29;46042;-79
2022/09/27 10:15:17;;;;;;;;;0.50;0.00;;;;;14.86;63.73;99713.81;4867149;29;45553;-79
2022/09/27 10:17:49;;;;;;;;;0.75;0.75;;;;;14.95;63.36;99720.75;4867656;29;45648;-79
2022/09/27 10:20:33;;;;;;;;;1.00;0.50;;;;;15.03;63.11;99714.72;4868064;29;46396;-79
2022/09/27 10:23:14;;;;;;;;;0.25;0.00;;;;;15.11;62.20;99712.09;4864362;29;45827;-81
2022/09/27 10:25:59;;;;;;;;;0.00;0.00;;;;;15.17;62.57;99718.56;4863672;29;45665;-78
2022/09/27 10:28:36;;;;;;;;;1.00;0.00;;;;;15.19;62.12;99717.41;4865777;29;45651;-80
2022/09/27 10:31:11;;;;;;;;;1.25;1.00;;;;;15.16;61.86;99717.72;4867669;29;45607;-80
2022/09/27 10:33:50;;;;;;;;;1.75;1.00;;;;;15.13;62.13;99712.75;4867980;29;46331;-80
2022/09/27 10:36:37;;;;;;;;;1.25;1.00;;;;;15.09;62.57;99716.72;4862258;29;45695;-80
2022/09/27 10:42:37;;;;;;;;;1.00;1.00;;;;;14.87;64.00;99752.41;4867480;29;45560;-78
2022/09/27 10:45:23;;;;;;;;;1.00;1.00;;;;;14.73;64.98;99729.25;4867252;29;46251;-79
2022/09/27 10:47:48;;;;;;;;;1.00;0.25;;;;;14.66;65.86;99733.50;4867355;29;45712;-80
2022/09/27 10:50:27;;;;;;;;;1.25;1.25;;;;;14.58;66.58;99731.63;4866878;29;45562;-80
2022/09/27 10:53:05;;;;;;;;;1.75;1.00;;;;;14.55;66.79;99741.66;4866822;29;46636;-79
2022/09/27 10:58:54;;;;;;;;;0.50;0.00;;;;;14.37;67.17;99739.06;4860714;29;45752;-79
2022/09/27 11:01:20;;;;;;;;;3.25;2.00;;;;;14.30;67.58;99733.56;4860578;29;45518;-79
2022/09/27 11:03:59;;;;;;;;;0.00;0.00;;;;;14.29;67.94;99741.63;4860324;29;46535;-81
2022/09/27 11:06:29;;;;;;;;;0.75;0.75;;;;;14.28;67.80;99743.44;4843590;29;47324;-80
2022/09/27 11:16:10;;;;;;;;;2.25;1.00;;;;;14.10;67.35;99724.19;4859456;29;46075;-79
2022/09/27 11:19:05;;;;;;;;;2.00;1.75;;;;;14.04;66.84;99726.59;4860208;29;45957;-78
2022/09/27 11:21:41;;;;;;;;;1.00;1.00;;;;;13.97;67.73;99715.88;4860257;29;45593;-81
2022/09/27 11:24:15;;;;;;;;;1.25;1.00;;;;;13.97;67.28;99728.22;4860315;29;45692;-80
2022/09/27 11:27:10;;;;;;;;;2.50;2.00;;;;;13.96;67.56;99731.81;4860090;29;46822;-80
2022/09/27 11:29:49;;;;;;;;;1.50;1.00;;;;;13.94;67.60;99734.59;4860026;29;46233;-79
2022/09/27 11:32:40;;;;;;;;;0.00;0.00;;;;;13.90;67.69;99743.78;4861295;29;45576;-80
2022/09/27 11:35:33;;;;;;;;;2.00;2.00;;;;;13.86;67.40;99730.09;4860064;29;45755;-79
2022/09/27 11:38:18;;;;;;;;;1.00;1.00;;;;;13.84;67.61;99734.69;4843144;29;47852;-80
2022/09/27 11:40:59;;;;;;;;;2.00;2.00;;;;;13.84;67.77;99726.78;4863259;29;45613;-80
2022/09/27 11:43:25;;;;;;;;;1.50;1.50;;;;;13.85;68.05;99725.81;4855761;29;45504;-78
2022/09/27 11:46:20;;;;;;;;;1.00;1.00;;;;;13.86;68.90;99727.47;4874521;29;45733;-80
2022/09/27 11:48:55;;;;;;;;;1.75;1.00;;;;;13.91;68.59;99727.03;4870128;29;45546;-78
2022/09/27 11:51:36;;;;;;;;;2.50;1.00;;;;;13.88;68.23;99716.78;4867243;29;45520;-79
2022/09/27 11:57:35;;;;;;;;;1.00;1.00;;;;;13.80;68.35;99704.38;4862415;29;45675;-81
2022/09/27 12:00:12;;;;;;;;;1.00;1.00;;;;;13.79;68.18;99700.09;4860381;29;45652;-80
2022/09/27 12:02:56;;;;;;;;;3.00;1.75;;;;;13.81;68.82;99699.94;4860081;29;46142;-79
2022/09/27 12:05:46;;;;;;;;;1.00;1.00;;;;;13.79;69.16;99697.47;4859972;29;45720;-80
2022/09/27 12:08:32;;;;;;;;;1.00;1.00;;;;;13.77;69.20;99696.78;4861019;29;45526;-81
2022/09/27 12:14:49;;;;;;;;;1.75;0.00;;;;;13.80;69.62;99695.66;4862603;29;45770;-80
2022/09/27 12:17:22;;;;;;;;;1.00;1.00;;;;;13.88;70.18;99685.19;4862882;29;45422;-81
2022/09/27 12:19:52;;;;;;;;;1.25;1.25;;;;;13.99;70.29;99690.19;4862846;29;45640;-81
2022/09/27 12:22:25;;;;;;;;;3.75;1.75;;;;;14.10;70.39;99695.22;4864067;29;47376;-80
2022/09/27 12:24:51;;;;;;;;;1.00;0.25;;;;;14.19;70.40;99683.78;4862913;29;46431;-80
2022/09/27 12:27:48;;;;;;;;;1.00;1.00;;;;;14.28;69.81;99680.19;4862727;29;45461;-80
2022/09/27 12:30:13;;;;;;;;;2.00;1.00;;;;;14.37;69.62;99680.28;4862089;29;45993;-80
2022/09/27 12:33:10;;;;;;;;;2.00;1.50;;;;;14.50;69.52;99678.06;4862508;29;46576;-80
2022/09/27 12:35:45;;;;;;;;;2.75;1.00;;;;;14.61;69.52;99683.88;4862420;29;46252;-80
2022/09/27 12:38:20;;;;;;;;;1.00;1.00;;;;;14.69;69.01;99675.16;4862659;29;45688;-80
2022/09/27 12:40:52;;;;;;;;;2.25;0.75;;;;;14.79;69.67;99689.03;4862499;29;45596;-78
2022/09/27 12:43:26;;;;;;;;;1.00;1.00;;;;;14.80;69.15;99693.34;4862520;29;46480;-80
2022/09/27 12:46:17;;;;;;;;;2.50;2.00;;;;;14.83;69.12;99687.75;4862261;29;46387;-81
2022/09/27 12:49:04;;;;;;;;;1.50;1.00;;;;;14.85;69.07;99677.88;4862421;29;45558;-78
2022/09/27 12:51:44;;;;;;;;;2.50;1.50;;;;;14.88;69.13;99669.66;4862510;29;45544;-80
2022/09/27 12:54:31;;;;;;;;;2.00;1.50;;;;;14.91;68.63;99669.31;4862381;29;45839;-80
2022/09/27 12:57:15;;;;;;;;;2.75;2.25;;;;;15.00;68.24;99662.28;4862322;29;46041;-80
2022/09/27 12:59:59;;;;;;;;;4.00;2.00;;;;;15.09;68.33;99662.13;4862359;29;45609;-80
2022/09/27 13:02:49;;;;;;;;;4.50;2.00;;;;;15.21;68.23;99678.50;4862411;29;45577;-80
2022/09/27 13:05:49;;;;;;;;;1.75;0.00;;;;;15.24;67.58;99662.31;4862297;29;46460;-80
2022/09/27 13:08:44;;;;;;;;;3.00;1.00;;;;;15.25;67.10;99665.78;4864309;29;45919;-80
2022/09/27 13:14:45;;;;;;;;;2.50;1.00;;;;;15.23;66.09;99659.84;4861869;29;45668;-80
2022/09/27 13:17:33;;;;;;;;;1.75;1.75;;;;;15.22;66.50;99651.13;4863020;29;45830;-79
2022/09/27 13:19:58;;;;;;;;;1.50;1.00;;;;;15.24;66.03;99661.50;4861720;29;46212;-78
2022/09/27 13:22:26;;;;;;;;;1.00;1.00;;;;;15.24;66.33;99643.03;4863663;29;45629;-80
2022/09/27 13:24:53;;;;;;;;;2.00;1.50;;;;;15.23;66.03;99644.00;4864203;29;45583;-79
2022/09/27 13:30:40;;;;;;;;;1.00;0.75;;;;;15.29;65.84;99660.03;4862204;29;45659;-80
2022/09/27 13:33:08;;;;;;;;;1.00;1.00;;;;;15.25;65.61;99648.16;4862064;29;45538;-79
2022/09/27 13:35:34;;;;;;;;;2.50;2.25;;;;;15.24;66.10;99635.09;4861921;29;45693;-80
2022/09/27 13:38:01;;;;;;;;;1.75;1.00;;;;;15.26;65.82;99644.53;4862040;29;46443;-79
2022/09/27 13:40:34;;;;;;;;;2.00;1.00;;;;;15.19;66.23;99645.31;4861644;29;45925;-80